Time;durP1;ratioP1;P1;durP2;ratioP2;P2;SDS_P1;SDS_P2;PMS_P1;PMS_P2;Temp;Humidity;BMP_temperature;BMP_pressure;BME280_temperature;BME280_humidity;BME280_pressure;Samples;Min_cycle;Max_cycle;Signal;HPM_P1;HPM_P2
2021/04/12 00:00:25;;;;;;;6.72;3.65;;;;;;;;;;4905786;29;20214;-83
2021/04/12 00:03:07;;;;;;;4.50;2.90;;;;;;;;;;4904226;29;20297;-83
2021/04/12 00:05:40;;;;;;;6.50;4.20;;;;;;;;;;4903929;29;20194;-83
2021/04/12 00:08:16;;;;;;;5.30;3.65;;;;;;;;;;4904580;29;20198;-83
2021/04/12 00:11:11;;;;;;;5.95;3.25;;;;;;;;;;4896346;29;20206;-83
2021/04/12 00:13:55;;;;;;;5.38;2.80;;;;;;;;;;4895462;29;20222;-83
2021/04/12 00:16:25;;;;;;;3.47;2.80;;;;;;;;;;4905988;29;20194;-83
2021/04/12 00:18:53;;;;;;;10.52;3.60;;;;;;;;;;4904194;29;20535;-83
2021/04/12 00:21:22;;;;;;;3.72;2.85;;;;;;;;;;4921955;29;20212;-83
2021/04/12 00:24:08;;;;;;;6.63;3.05;;;;;;;;;;4964008;28;20205;-83
2021/04/12 00:26:53;;;;;;;5.25;3.17;;;;;;;;;;4962854;28;20247;-83
2021/04/12 00:29:25;;;;;;;5.15;3.08;;;;;;;;;;4959590;28;20231;-83
2021/04/12 00:31:54;;;;;;;6.80;2.90;;;;;;;;;;5061906;28;20173;-83
2021/04/12 00:34:33;;;;;;;4.80;3.53;;;;;;;;;;5063503;28;20171;-83
2021/04/12 00:37:02;;;;;;;4.25;3.72;;;;;;;;;;5064351;28;20251;-83
2021/04/12 00:39:36;;;;;;;4.97;3.88;;;;;;;;;;5058319;28;20221;-83
2021/04/12 00:42:21;;;;;;;5.70;3.40;;;;;;;;;;5061806;28;20188;-83
2021/04/12 00:44:50;;;;;;;5.13;3.63;;;;;;;;;;5072456;28;20192;-83
2021/04/12 00:47:31;;;;;;;4.05;2.88;;;;;;;;;;5057639;28;20625;-83
2021/04/12 00:50:18;;;;;;;2.80;2.38;;;;;;;;;;5063952;28;20185;-83
2021/04/12 00:53:03;;;;;;;6.03;3.10;;;;;;;;;;5061126;28;20181;-83
2021/04/12 00:55:29;;;;;;;5.03;3.00;;;;;;;;;;5064703;28;20204;-83
2021/04/12 00:57:57;;;;;;;7.27;2.27;;;;;;;;;;5063548;28;20203;-82
2021/04/12 01:00:23;;;;;;;3.65;2.92;;;;;;;;;;5056538;28;20637;-83
2021/04/12 01:02:49;;;;;;;3.10;2.40;;;;;;;;;;5063959;28;20520;-83
2021/04/12 01:05:34;;;;;;;4.82;2.55;;;;;;;;;;5063715;28;20471;-83
2021/04/12 01:08:09;;;;;;;3.83;2.83;;;;;;;;;;5062320;28;20188;-83
2021/04/12 01:10:40;;;;;;;3.88;2.92;;;;;;;;;;5071216;28;20218;-83
2021/04/12 01:13:12;;;;;;;3.97;2.53;;;;;;;;;;5060286;28;20177;-83
2021/04/12 01:15:38;;;;;;;2.75;2.33;;;;;;;;;;5073278;28;20281;-83
2021/04/12 01:18:23;;;;;;;3.53;2.57;;;;;;;;;;5056482;28;20212;-83
2021/04/12 01:21:04;;;;;;;4.63;2.72;;;;;;;;;;5052548;28;21028;-83
2021/04/12 01:23:49;;;;;;;4.32;2.70;;;;;;;;;;5074334;28;20193;-82
2021/04/12 01:26:33;;;;;;;4.10;3.13;;;;;;;;;;5059239;28;20185;-83
2021/04/12 01:29:08;;;;;;;4.38;2.95;;;;;;;;;;5057691;28;20217;-83
2021/04/12 01:31:38;;;;;;;5.50;3.78;;;;;;;;;;5063029;28;20183;-83
2021/04/12 01:34:22;;;;;;;3.60;2.65;;;;;;;;;;5062329;28;20185;-83
2021/04/12 01:37:07;;;;;;;5.40;3.08;;;;;;;;;;5062912;28;20238;-83
2021/04/12 01:39:36;;;;;;;4.03;2.72;;;;;;;;;;5056118;28;20581;-83
2021/04/12 01:42:04;;;;;;;3.95;3.15;;;;;;;;;;5058776;28;20181;-83
2021/04/12 01:44:50;;;;;;;3.10;2.90;;;;;;;;;;5063167;28;20220;-83
2021/04/12 01:47:28;;;;;;;4.45;2.92;;;;;;;;;;5073187;28;20192;-82
2021/04/12 01:50:13;;;;;;;3.35;3.05;;;;;;;;;;5061505;28;20205;-83
2021/04/12 01:52:58;;;;;;;3.47;2.78;;;;;;;;;;5061944;28;20539;-83
2021/04/12 01:55:43;;;;;;;7.80;2.78;;;;;;;;;;5055817;28;20209;-83
2021/04/12 01:58:21;;;;;;;7.20;2.97;;;;;;;;;;5073593;28;20181;-83
2021/04/12 02:00:52;;;;;;;3.25;2.95;;;;;;;;;;5058540;28;20208;-82
2021/04/12 02:03:18;;;;;;;3.08;2.72;;;;;;;;;;5057714;28;20174;-83
2021/04/12 02:06:03;;;;;;;6.60;3.40;;;;;;;;;;5073038;28;20188;-82
2021/04/12 02:08:29;;;;;;;3.45;3.25;;;;;;;;;;5076888;28;20464;-82
2021/04/12 02:11:04;;;;;;;6.50;3.30;;;;;;;;;;5057454;28;20181;-82
2021/04/12 02:13:36;;;;;;;4.18;3.17;;;;;;;;;;5062699;28;20420;-82
2021/04/12 02:16:21;;;;;;;5.15;2.83;;;;;;;;;;5059708;28;20193;-82
2021/04/12 02:18:50;;;;;;;6.03;3.17;;;;;;;;;;5060762;28;20213;-82
2021/04/12 02:21:19;;;;;;;5.78;3.83;;;;;;;;;;5062589;28;20185;-82
2021/04/12 02:24:00;;;;;;;2.80;2.60;;;;;;;;;;5061905;28;20263;-82
2021/04/12 02:26:35;;;;;;;3.63;3.33;;;;;;;;;;5059785;28;20188;-82
2021/04/12 02:29:12;;;;;;;6.90;2.70;;;;;;;;;;5061778;28;25232;-82
2021/04/12 02:31:38;;;;;;;3.30;3.00;;;;;;;;;;5057832;28;20179;-82
2021/04/12 02:34:08;;;;;;;3.58;2.90;;;;;;;;;;5058084;28;20200;-82
2021/04/12 02:37:06;;;;;;;5.57;3.50;;;;;;;;;;5051459;28;20189;-82
2021/04/12 02:39:32;;;;;;;3.03;2.35;;;;;;;;;;5062040;28;20219;-82
2021/04/12 02:42:07;;;;;;;4.03;3.63;;;;;;;;;;5062311;28;20216;-82
2021/04/12 02:44:54;;;;;;;5.43;3.25;;;;;;;;;;5078069;28;20486;-82
2021/04/12 02:47:43;;;;;;;3.47;2.50;;;;;;;;;;5057427;28;20649;-82
2021/04/12 02:50:18;;;;;;;5.95;3.47;;;;;;;;;;5054932;28;20284;-82
2021/04/12 02:52:50;;;;;;;3.35;3.00;;;;;;;;;;5057893;28;20179;-82
2021/04/12 02:55:26;;;;;;;5.97;3.42;;;;;;;;;;5055707;28;20184;-82
2021/04/12 02:58:04;;;;;;;4.95;3.75;;;;;;;;;;5063455;28;20661;-82
2021/04/12 03:00:45;;;;;;;4.38;2.95;;;;;;;;;;5065715;28;20228;-82
2021/04/12 03:03:21;;;;;;;3.65;3.30;;;;;;;;;;5069427;28;20188;-82
2021/04/12 03:05:53;;;;;;;5.15;4.05;;;;;;;;;;5064895;28;20173;-82
2021/04/12 03:08:19;;;;;;;3.60;3.30;;;;;;;;;;5062361;28;20248;-82
2021/04/12 03:10:52;;;;;;;5.00;3.67;;;;;;;;;;5076018;28;20192;-81
2021/04/12 03:13:37;;;;;;;4.55;3.35;;;;;;;;;;5065964;28;20412;-82
2021/04/12 03:16:18;;;;;;;5.43;4.05;;;;;;;;;;5070363;28;20962;-82
2021/04/12 03:18:47;;;;;;;3.92;3.42;;;;;;;;;;5065594;28;20185;-83
2021/04/12 03:21:33;;;;;;;6.18;4.13;;;;;;;;;;5068166;28;20230;-83
2021/04/12 03:24:04;;;;;;;4.90;3.75;;;;;;;;;;5069035;28;20185;-82
2021/04/12 03:26:33;;;;;;;4.70;4.10;;;;;;;;;;5078217;28;20205;-82
2021/04/12 03:29:03;;;;;;;3.80;3.50;;;;;;;;;;5065197;28;20705;-83
2021/04/12 03:31:44;;;;;;;6.53;3.63;;;;;;;;;;5060940;28;20192;-83
2021/04/12 03:34:36;;;;;;;4.93;3.90;;;;;;;;;;5060484;28;20184;-82
2021/04/12 03:37:14;;;;;;;3.83;3.50;;;;;;;;;;5058175;28;20193;-82
2021/04/12 03:40:00;;;;;;;4.72;4.03;;;;;;;;;;5064995;28;20270;-84
2021/04/12 03:42:29;;;;;;;5.20;4.25;;;;;;;;;;5075958;28;20174;-82
2021/04/12 03:45:06;;;;;;;5.30;4.22;;;;;;;;;;5072922;28;20181;-82
2021/04/12 03:47:41;;;;;;;6.15;4.45;;;;;;;;;;5063043;28;20282;-83
2021/04/12 03:50:26;;;;;;;5.55;3.88;;;;;;;;;;5058942;28;20329;-83
2021/04/12 03:53:04;;;;;;;5.30;4.40;;;;;;;;;;5063066;28;20177;-82
2021/04/12 03:55:30;;;;;;;6.10;4.30;;;;;;;;;;5060393;28;20184;-82
2021/04/12 03:58:02;;;;;;;5.60;4.77;;;;;;;;;;5064989;28;20181;-82
2021/04/12 04:00:47;;;;;;;5.45;4.93;;;;;;;;;;5058873;28;20470;-82
2021/04/12 04:03:13;;;;;;;6.72;4.28;;;;;;;;;;5055511;28;20190;-81
2021/04/12 04:05:44;;;;;;;5.73;4.33;;;;;;;;;;5063585;28;20255;-81
2021/04/12 04:08:16;;;;;;;5.63;4.50;;;;;;;;;;5059833;28;20436;-81
2021/04/12 04:10:45;;;;;;;5.32;4.82;;;;;;;;;;5059607;28;20185;-81
2021/04/12 04:13:11;;;;;;;5.20;4.53;;;;;;;;;;5061778;28;20220;-81
2021/04/12 04:15:49;;;;;;;5.50;4.50;;;;;;;;;;5059510;28;20670;-81
2021/04/12 04:18:28;;;;;;;8.27;4.97;;;;;;;;;;5066725;28;20453;-81
2021/04/12 04:21:06;;;;;;;5.75;5.03;;;;;;;;;;5062930;28;20201;-81
2021/04/12 04:23:43;;;;;;;5.53;4.78;;;;;;;;;;5064887;28;20259;-81
2021/04/12 04:26:13;;;;;;;6.75;5.60;;;;;;;;;;5058451;28;20199;-81
2021/04/12 04:28:48;;;;;;;6.32;4.85;;;;;;;;;;5060390;28;20221;-80
2021/04/12 04:31:32;;;;;;;9.43;5.10;;;;;;;;;;5060871;28;20181;-81
2021/04/12 04:33:58;;;;;;;7.20;5.65;;;;;;;;;;5064020;28;20253;-81
2021/04/12 04:36:43;;;;;;;5.50;4.47;;;;;;;;;;5064288;28;20181;-81
2021/04/12 04:39:12;;;;;;;6.03;4.80;;;;;;;;;;5056466;28;20487;-80
2021/04/12 04:41:50;;;;;;;6.03;5.25;;;;;;;;;;5062609;28;20188;-80
2021/04/12 04:44:36;;;;;;;5.55;4.45;;;;;;;;;;5059511;28;20181;-81
2021/04/12 04:47:12;;;;;;;7.13;5.00;;;;;;;;;;5063440;28;20237;-80
2021/04/12 04:50:05;;;;;;;6.35;5.72;;;;;;;;;;5060900;28;20181;-81
2021/04/12 04:52:49;;;;;;;7.85;5.72;;;;;;;;;;5024846;28;20200;-81
2021/04/12 04:55:24;;;;;;;6.82;5.50;;;;;;;;;;5025124;28;20174;-81
2021/04/12 04:58:12;;;;;;;6.68;5.97;;;;;;;;;;5037702;28;20189;-81
2021/04/12 05:00:55;;;;;;;6.20;5.20;;;;;;;;;;5020645;28;20232;-80
2021/04/12 05:03:30;;;;;;;6.57;5.43;;;;;;;;;;5021158;28;20633;-81
2021/04/12 05:06:02;;;;;;;11.52;6.22;;;;;;;;;;5031423;28;20255;-81
2021/04/12 05:08:48;;;;;;;8.90;6.13;;;;;;;;;;5032760;28;20268;-81
2021/04/12 05:11:32;;;;;;;9.43;6.55;;;;;;;;;;5017885;28;20336;-81
2021/04/12 05:14:17;;;;;;;8.13;6.32;;;;;;;;;;5023058;28;20185;-83
2021/04/12 05:17:03;;;;;;;8.10;6.05;;;;;;;;;;5038460;28;20196;-81
2021/04/12 05:19:48;;;;;;;7.88;5.88;;;;;;;;;;4981781;28;20215;-81
2021/04/12 05:22:13;;;;;;;6.05;5.47;;;;;;;;;;4982209;28;20184;-80
2021/04/12 05:24:42;;;;;;;7.80;5.97;;;;;;;;;;4981346;28;20296;-80
2021/04/12 05:27:08;;;;;;;9.60;6.43;;;;;;;;;;4982045;28;20979;-81
2021/04/12 05:29:43;;;;;;;6.60;5.70;;;;;;;;;;4989226;28;20210;-81
2021/04/12 05:32:47;;;;;;;6.18;5.57;;;;;;;;;;5000141;28;20492;-82
2021/04/12 05:35:13;;;;;;;7.82;5.90;;;;;;;;;;4959869;29;20194;-81
2021/04/12 05:37:55;;;;;;;8.05;6.78;;;;;;;;;;4943272;29;20200;-81
2021/04/12 05:40:36;;;;;;;9.38;6.47;;;;;;;;;;4961022;29;20216;-82
2021/04/12 05:43:15;;;;;;;12.93;7.38;;;;;;;;;;4941460;29;20192;-81
2021/04/12 05:45:51;;;;;;;7.70;6.90;;;;;;;;;;4941269;29;20216;-81
2021/04/12 05:48:24;;;;;;;8.60;7.43;;;;;;;;;;4946000;29;20251;-82
2021/04/12 05:51:09;;;;;;;8.30;6.72;;;;;;;;;;4952678;29;20201;-82
2021/04/12 05:53:53;;;;;;;8.85;6.68;;;;;;;;;;4959519;29;20227;-82
2021/04/12 05:56:24;;;;;;;8.32;7.30;;;;;;;;;;4982749;28;20197;-82
2021/04/12 05:59:04;;;;;;;8.50;7.40;;;;;;;;;;5019330;28;20186;-83
2021/04/12 06:01:49;;;;;;;12.38;8.85;;;;;;;;;;5020318;28;20574;-82
2021/04/12 06:04:27;;;;;;;11.15;9.00;;;;;;;;;;5015643;28;20596;-83
2021/04/12 06:07:12;;;;;;;10.50;9.40;;;;;;;;;;5051437;28;20192;-82
2021/04/12 06:09:51;;;;;;;10.18;8.60;;;;;;;;;;5071795;28;20587;-84
2021/04/12 06:12:16;;;;;;;9.20;7.68;;;;;;;;;;5054595;28;20184;-83
2021/04/12 06:15:01;;;;;;;9.00;8.10;;;;;;;;;;5059572;28;20181;-83
2021/04/12 06:17:46;;;;;;;7.65;6.70;;;;;;;;;;5059908;28;20439;-83
2021/04/12 06:20:41;;;;;;;8.80;7.32;;;;;;;;;;5050941;28;20204;-82
2021/04/12 06:23:10;;;;;;;11.98;7.15;;;;;;;;;;5039027;28;20212;-83
2021/04/12 06:25:54;;;;;;;8.02;7.15;;;;;;;;;;5041096;28;20184;-84
2021/04/12 06:28:38;;;;;;;7.88;7.07;;;;;;;;;;5039873;28;20235;-83
2021/04/12 06:31:26;;;;;;;8.82;7.60;;;;;;;;;;5015630;28;20710;-84
2021/04/12 06:34:00;;;;;;;15.77;9.75;;;;;;;;;;5038135;28;20192;-83
2021/04/12 06:36:31;;;;;;;22.45;19.50;;;;;;;;;;5041863;28;20178;-83
2021/04/12 06:39:15;;;;;;;9.77;7.63;;;;;;;;;;5028856;28;20217;-83
2021/04/12 06:42:00;;;;;;;10.85;7.88;;;;;;;;;;5043384;28;20256;-83
2021/04/12 06:44:29;;;;;;;10.63;7.45;;;;;;;;;;5040107;28;20228;-83
2021/04/12 06:47:13;;;;;;;12.05;7.90;;;;;;;;;;5043298;28;20194;-83
2021/04/12 06:49:42;;;;;;;10.20;7.32;;;;;;;;;;5040484;28;20256;-83
2021/04/12 06:52:22;;;;;;;8.57;6.88;;;;;;;;;;5043142;28;20173;-83
2021/04/12 06:55:07;;;;;;;8.82;7.35;;;;;;;;;;5023484;28;20185;-83
2021/04/12 06:57:51;;;;;;;6.97;6.15;;;;;;;;;;5039922;28;20198;-83
2021/04/12 07:00:36;;;;;;;9.00;6.95;;;;;;;;;;5052038;28;20233;-82
2021/04/12 07:03:21;;;;;;;8.20;7.38;;;;;;;;;;5052841;28;20757;-82
2021/04/12 07:06:06;;;;;;;7.78;6.97;;;;;;;;;;5059231;28;20199;-82
2021/04/12 07:08:51;;;;;;;12.93;7.88;;;;;;;;;;5061568;28;20190;-84
2021/04/12 07:11:36;;;;;;;8.63;6.70;;;;;;;;;;5040587;28;20189;-82
2021/04/12 07:14:11;;;;;;;9.13;7.45;;;;;;;;;;5003791;28;20198;-84
2021/04/12 07:16:40;;;;;;;9.23;7.20;;;;;;;;;;5005231;28;20183;-83
2021/04/12 07:19:15;;;;;;;8.98;7.03;;;;;;;;;;4997753;28;20226;-83
2021/04/12 07:22:00;;;;;;;10.93;7.57;;;;;;;;;;4998518;28;20671;-82
2021/04/12 07:24:50;;;;;;;10.32;6.90;;;;;;;;;;5001114;28;20202;-84
2021/04/12 07:27:28;;;;;;;7.32;6.53;;;;;;;;;;5009097;28;20651;-82
2021/04/12 07:29:55;;;;;;;6.80;6.20;;;;;;;;;;4998631;28;20191;-83
2021/04/12 07:32:24;;;;;;;7.35;6.65;;;;;;;;;;5031174;28;20198;-85
2021/04/12 07:35:20;;;;;;;10.65;6.22;;;;;;;;;;5004376;28;20191;-85
2021/04/12 07:37:46;;;;;;;7.05;6.22;;;;;;;;;;4964828;28;20275;-84
2021/04/12 07:40:44;;;;;;;6.53;5.93;;;;;;;;;;4967171;28;20286;-84
2021/04/12 07:43:33;;;;;;;10.10;6.03;;;;;;;;;;4965721;28;20176;-85
2021/04/12 07:46:14;;;;;;;8.60;5.93;;;;;;;;;;4981312;28;20191;-84
2021/04/12 07:48:58;;;;;;;6.75;6.05;;;;;;;;;;4975301;28;20251;-84
2021/04/12 07:51:27;;;;;;;9.35;6.15;;;;;;;;;;4973828;28;20219;-84
2021/04/12 07:53:53;;;;;;;7.03;5.80;;;;;;;;;;4980252;28;20180;-85
2021/04/12 07:56:22;;;;;;;7.78;6.63;;;;;;;;;;4982720;28;20180;-84
2021/04/12 07:59:06;;;;;;;12.18;7.63;;;;;;;;;;4982980;28;20175;-84
2021/04/12 08:01:50;;;;;;;6.93;6.10;;;;;;;;;;4971536;28;20184;-85
2021/04/12 08:04:35;;;;;;;8.23;6.10;;;;;;;;;;4967557;28;20180;-84
2021/04/12 08:07:20;;;;;;;6.70;5.65;;;;;;;;;;4982693;28;20221;-82
2021/04/12 08:10:01;;;;;;;8.40;6.28;;;;;;;;;;4982014;28;20191;-85
2021/04/12 08:12:45;;;;;;;8.38;5.97;;;;;;;;;;4964110;28;20205;-83
2021/04/12 08:15:11;;;;;;;7.90;7.07;;;;;;;;;;5002460;28;20753;-82
2021/04/12 08:17:53;;;;;;;8.35;6.32;;;;;;;;;;5003756;28;20190;-85
2021/04/12 08:20:22;;;;;;;6.85;6.07;;;;;;;;;;4998320;28;20226;-83
2021/04/12 08:23:07;;;;;;;7.78;5.70;;;;;;;;;;5001607;28;20187;-84
2021/04/12 08:25:52;;;;;;;9.77;5.88;;;;;;;;;;5004404;28;20637;-84
2021/04/12 08:28:18;;;;;;;7.22;6.40;;;;;;;;;;5014534;28;20235;-83
2021/04/12 08:31:03;;;;;;;9.43;6.30;;;;;;;;;;5003576;28;20206;-83
2021/04/12 08:33:29;;;;;;;8.32;6.25;;;;;;;;;;4997013;28;20202;-85
2021/04/12 08:36:04;;;;;;;8.90;6.33;;;;;;;;;;4994579;28;20180;-86
2021/04/12 08:38:44;;;;;;;8.55;6.45;;;;;;;;;;5000526;28;20443;-84
2021/04/12 08:41:16;;;;;;;7.60;5.72;;;;;;;;;;4998769;28;20191;-85
2021/04/12 08:44:01;;;;;;;8.05;6.75;;;;;;;;;;5011013;28;20550;-83
2021/04/12 08:46:42;;;;;;;8.85;6.55;;;;;;;;;;5004422;28;20256;-83
2021/04/12 08:49:14;;;;;;;10.20;6.45;;;;;;;;;;5006063;28;20180;-85
2021/04/12 08:51:53;;;;;;;7.90;6.70;;;;;;;;;;4996974;28;20256;-85
2021/04/12 08:54:37;;;;;;;5.57;5.05;;;;;;;;;;4999348;28;20264;-86
2021/04/12 08:57:22;;;;;;;7.93;6.00;;;;;;;;;;4997356;28;20190;-85
2021/04/12 08:59:54;;;;;;;9.27;6.10;;;;;;;;;;4987132;28;20207;-85
2021/04/12 09:02:39;;;;;;;9.57;6.47;;;;;;;;;;4999090;28;20263;-87
2021/04/12 09:05:08;;;;;;;6.97;5.60;;;;;;;;;;5000059;28;20268;-87
2021/04/12 09:07:40;;;;;;;6.78;5.85;;;;;;;;;;5013632;28;20199;-85
2021/04/12 09:10:09;;;;;;;6.85;5.22;;;;;;;;;;5015922;28;20195;-87
2021/04/12 09:12:47;;;;;;;8.48;6.03;;;;;;;;;;4998356;28;20195;-84
2021/04/12 09:15:13;;;;;;;8.82;6.50;;;;;;;;;;5001137;28;20810;-86
2021/04/12 09:17:39;;;;;;;7.23;5.33;;;;;;;;;;4996284;28;20207;-86
2021/04/12 09:20:08;;;;;;;6.20;5.00;;;;;;;;;;5005085;28;20549;-84
2021/04/12 09:22:53;;;;;;;6.50;5.43;;;;;;;;;;4997089;28;20175;-83
2021/04/12 09:25:37;;;;;;;6.78;5.60;;;;;;;;;;5018945;28;20179;-83
2021/04/12 09:28:22;;;;;;;7.00;6.30;;;;;;;;;;4995318;28;20222;-84
2021/04/12 09:31:03;;;;;;;4.90;4.38;;;;;;;;;;5017506;28;20198;-86
2021/04/12 09:33:35;;;;;;;8.63;6.20;;;;;;;;;;5000452;28;20191;-84
2021/04/12 09:36:28;;;;;;;6.88;4.75;;;;;;;;;;5000421;28;20346;-83
2021/04/12 09:38:54;;;;;;;8.00;5.13;;;;;;;;;;4999253;28;20185;-83
2021/04/12 09:41:20;;;;;;;8.57;4.53;;;;;;;;;;5000571;28;20251;-85
2021/04/12 09:44:04;;;;;;;5.77;5.17;;;;;;;;;;5004098;28;20175;-82
2021/04/12 09:46:49;;;;;;;6.05;5.45;;;;;;;;;;5002814;28;20426;-87
2021/04/12 09:49:44;;;;;;;9.15;5.40;;;;;;;;;;4998998;28;20222;-83
2021/04/12 09:52:10;;;;;;;6.45;5.32;;;;;;;;;;4997299;28;20198;-86
2021/04/12 09:54:42;;;;;;;5.83;4.87;;;;;;;;;;4991069;28;20250;-84
2021/04/12 09:57:23;;;;;;;5.65;5.05;;;;;;;;;;4991939;28;20956;-86
2021/04/12 10:00:28;;;;;;;7.40;6.15;;;;;;;;;;5002203;28;20217;-85
2021/04/12 10:03:15;;;;;;;6.75;4.75;;;;;;;;;;4981521;28;20287;-85
2021/04/12 10:05:50;;;;;;;6.68;5.25;;;;;;;;;;4977000;28;20389;-83
2021/04/12 10:08:19;;;;;;;5.85;5.25;;;;;;;;;;4970192;28;20199;-79
2021/04/12 10:11:00;;;;;;;6.13;5.63;;;;;;;;;;4980681;28;20214;-81
2021/04/12 10:13:33;;;;;;;7.47;4.70;;;;;;;;;;4980670;28;20200;-82
2021/04/12 10:16:17;;;;;;;5.55;3.80;;;;;;;;;;4979901;28;20247;-85
2021/04/12 10:18:48;;;;;;;4.40;4.03;;;;;;;;;;4978298;28;20708;-86
2021/04/12 10:21:17;;;;;;;3.80;3.50;;;;;;;;;;4977677;28;20203;-85
2021/04/12 10:23:45;;;;;;;5.88;3.75;;;;;;;;;;4980782;28;20184;-85
2021/04/12 10:26:40;;;;;;;4.65;4.25;;;;;;;;;;4981307;28;20179;-86
2021/04/12 10:29:11;;;;;;;4.80;4.13;;;;;;;;;;4964832;28;20211;-83
2021/04/12 10:31:58;;;;;;;4.85;4.35;;;;;;;;;;4981670;28;20184;-84
2021/04/12 10:34:24;;;;;;;4.65;4.20;;;;;;;;;;4991900;28;20187;-82
2021/04/12 10:36:59;;;;;;;4.35;3.35;;;;;;;;;;4998337;28;20191;-82
2021/04/12 10:39:29;;;;;;;3.85;3.10;;;;;;;;;;5014837;28;20214;-85
2021/04/12 10:41:58;;;;;;;4.90;3.67;;;;;;;;;;5015996;28;20175;-86
2021/04/12 10:44:32;;;;;;;6.40;4.50;;;;;;;;;;5000581;28;20214;-84
2021/04/12 10:47:04;;;;;;;4.30;3.90;;;;;;;;;;5002599;28;20625;-83
2021/04/12 10:49:40;;;;;;;4.85;3.40;;;;;;;;;;5002459;28;20222;-84
2021/04/12 10:52:06;;;;;;;3.33;3.03;;;;;;;;;;4991382;28;20199;-82
2021/04/12 10:54:35;;;;;;;3.80;3.15;;;;;;;;;;4997169;28;20194;-89
2021/04/12 10:57:19;;;;;;;3.90;3.20;;;;;;;;;;5001592;28;20185;-83
2021/04/12 10:59:48;;;;;;;5.32;3.38;;;;;;;;;;4997075;28;20205;-83
2021/04/12 11:02:28;;;;;;;3.40;2.90;;;;;;;;;;4985708;28;20239;-87
2021/04/12 11:05:04;;;;;;;4.68;4.25;;;;;;;;;;4999397;28;20194;-84
2021/04/12 11:07:38;;;;;;;3.72;3.10;;;;;;;;;;5000311;28;20187;-83
2021/04/12 11:10:13;;;;;;;3.85;3.55;;;;;;;;;;5002130;28;20186;-84
2021/04/12 11:12:42;;;;;;;4.05;3.13;;;;;;;;;;5014859;28;20197;-82
2021/04/12 11:15:25;;;;;;;5.63;3.33;;;;;;;;;;5008897;28;20287;-84
2021/04/12 11:17:58;;;;;;;4.65;3.17;;;;;;;;;;4999133;28;20179;-85
2021/04/12 11:20:28;;;;;;;3.83;3.35;;;;;;;;;;4995086;28;20346;-78
2021/04/12 11:23:02;;;;;;;4.65;4.00;;;;;;;;;;5004210;28;20302;-82
2021/04/12 11:25:36;;;;;;;4.15;3.78;;;;;;;;;;5004275;28;20198;-82
2021/04/12 11:28:08;;;;;;;4.07;3.70;;;;;;;;;;5005466;28;20700;-84
2021/04/12 11:30:38;;;;;;;3.67;3.38;;;;;;;;;;4996822;28;20191;-79
2021/04/12 11:33:22;;;;;;;3.13;2.50;;;;;;;;;;4991218;28;20195;-80
2021/04/12 11:36:07;;;;;;;3.70;2.65;;;;;;;;;;5004903;28;20182;-82
2021/04/12 11:38:41;;;;;;;3.72;2.53;;;;;;;;;;5004437;28;20230;-79
2021/04/12 11:41:24;;;;;;;3.08;2.78;;;;;;;;;;5004977;28;20207;-84
2021/04/12 11:43:53;;;;;;;6.68;2.90;;;;;;;;;;5005698;28;20175;-84
2021/04/12 11:46:37;;;;;;;2.90;2.67;;;;;;;;;;5001923;28;20233;-83
2021/04/12 11:49:10;;;;;;;3.90;3.60;;;;;;;;;;5004555;28;20607;-83
2021/04/12 11:51:40;;;;;;;4.50;2.70;;;;;;;;;;5001035;28;20279;-82
2021/04/12 11:54:09;;;;;;;3.03;2.65;;;;;;;;;;5015992;28;20271;-84
2021/04/12 11:56:41;;;;;;;2.80;2.60;;;;;;;;;;5003806;28;20226;-85
2021/04/12 11:59:14;;;;;;;2.40;2.20;;;;;;;;;;5003048;28;20237;-79
2021/04/12 12:01:43;;;;;;;3.15;2.25;;;;;;;;;;5015628;28;20275;-79
2021/04/12 12:04:15;;;;;;;3.50;2.60;;;;;;;;;;5002978;28;20177;-83
2021/04/12 12:06:52;;;;;;;2.80;2.55;;;;;;;;;;5004443;28;20201;-81
2021/04/12 12:09:34;;;;;;;2.60;2.20;;;;;;;;;;5004565;28;20217;-81
2021/04/12 12:12:03;;;;;;;3.53;2.83;;;;;;;;;;5000931;28;20715;-81
2021/04/12 12:14:32;;;;;;;3.20;2.40;;;;;;;;;;4991375;28;20187;-82
2021/04/12 12:16:58;;;;;;;2.47;2.10;;;;;;;;;;5004149;28;20184;-80
2021/04/12 12:19:40;;;;;;;3.92;3.60;;;;;;;;;;5004223;28;20798;-83
2021/04/12 12:22:06;;;;;;;3.35;2.95;;;;;;;;;;4999990;28;20183;-81
2021/04/12 12:24:35;;;;;;;4.10;3.43;;;;;;;;;;5000828;28;20187;-80
2021/04/12 12:27:14;;;;;;;4.00;3.65;;;;;;;;;;4997999;28;20450;-81
2021/04/12 12:29:47;;;;;;;3.92;3.30;;;;;;;;;;4986966;28;20211;-80
2021/04/12 12:32:16;;;;;;;2.88;2.25;;;;;;;;;;4991601;28;20213;-81
2021/04/12 12:34:51;;;;;;;3.95;2.50;;;;;;;;;;5004248;28;20214;-84
2021/04/12 12:37:38;;;;;;;3.22;2.67;;;;;;;;;;5000513;28;20179;-84
2021/04/12 12:40:15;;;;;;;2.88;2.67;;;;;;;;;;4997187;28;21033;-83
2021/04/12 12:42:42;;;;;;;3.03;2.78;;;;;;;;;;4995202;28;20667;-81
2021/04/12 12:45:12;;;;;;;2.70;2.45;;;;;;;;;;5001446;28;20199;-84
2021/04/12 12:47:39;;;;;;;3.25;2.80;;;;;;;;;;4988876;28;20175;-84
2021/04/12 12:50:12;;;;;;;2.85;2.30;;;;;;;;;;4986432;28;20193;-82
2021/04/12 12:52:51;;;;;;;4.90;2.00;;;;;;;;;;5004633;28;20175;-85
2021/04/12 12:55:23;;;;;;;2.20;2.00;;;;;;;;;;5000203;28;20175;-84
2021/04/12 12:57:52;;;;;;;2.30;2.10;;;;;;;;;;5003005;28;20194;-84
2021/04/12 13:00:18;;;;;;;2.65;2.15;;;;;;;;;;5002501;28;20588;-81
2021/04/12 13:02:45;;;;;;;2.08;1.88;;;;;;;;;;4999157;28;20186;-82
2021/04/12 13:05:28;;;;;;;2.60;2.00;;;;;;;;;;5000471;28;20210;-84
2021/04/12 13:08:04;;;;;;;2.50;2.30;;;;;;;;;;5001838;28;20518;-87
2021/04/12 13:10:38;;;;;;;2.58;2.38;;;;;;;;;;5018102;28;20179;-86
2021/04/12 13:13:24;;;;;;;4.13;2.95;;;;;;;;;;5004432;28;20268;-85
2021/04/12 13:16:02;;;;;;;2.47;2.10;;;;;;;;;;4991816;28;20195;-87
2021/04/12 13:18:30;;;;;;;5.03;3.10;;;;;;;;;;5003561;28;20245;-84
2021/04/12 13:21:08;;;;;;;2.55;2.22;;;;;;;;;;4998635;28;20205;-86
2021/04/12 13:24:06;;;;;;;2.78;1.52;;;;;;;;;;4996741;28;20180;-87
2021/04/12 13:26:32;;;;;;;2.58;2.15;;;;;;;;;;4999860;28;20261;-87
2021/04/12 13:29:04;;;;;;;3.80;2.60;;;;;;;;;;5000935;28;20794;-84
2021/04/12 13:31:40;;;;;;;2.65;2.15;;;;;;;;;;5003092;28;20431;-86
2021/04/12 13:34:15;;;;;;;2.65;2.30;;;;;;;;;;4999322;28;20641;-88
2021/04/12 13:36:43;;;;;;;2.40;2.20;;;;;;;;;;4999220;28;20182;-87
2021/04/12 13:39:16;;;;;;;2.88;1.95;;;;;;;;;;5018448;28;20214;-86
2021/04/12 13:41:47;;;;;;;4.10;1.75;;;;;;;;;;5001386;28;20197;-80
2021/04/12 13:44:19;;;;;;;2.85;2.10;;;;;;;;;;4990236;28;20183;-84
2021/04/12 13:46:57;;;;;;;2.55;1.95;;;;;;;;;;5000532;28;20195;-84
2021/04/12 13:49:44;;;;;;;;;;;;;;;;;;;;;
2021/04/12 13:52:29;;;;;;;2.00;1.90;;;;;;;;;;4997310;28;20242;-82
2021/04/12 13:55:14;;;;;;;2.03;1.58;;;;;;;;;;5010011;28;20175;-83
2021/04/12 13:57:49;;;;;;;2.42;1.95;;;;;;;;;;4996378;28;20187;-78
2021/04/12 14:00:35;;;;;;;2.20;1.63;;;;;;;;;;5000580;28;20225;-88
2021/04/12 14:03:06;;;;;;;1.65;1.30;;;;;;;;;;5013290;28;20206;-85
2021/04/12 14:05:34;;;;;;;2.05;1.80;;;;;;;;;;4997762;28;20192;-83
2021/04/12 14:08:03;;;;;;;1.60;1.40;;;;;;;;;;5002996;28;20167;-84
2021/04/12 14:10:39;;;;;;;2.42;1.70;;;;;;;;;;5002592;28;20261;-83
2021/04/12 14:13:08;;;;;;;3.70;2.00;;;;;;;;;;4999370;28;20183;-83
2021/04/12 14:15:34;;;;;;;1.60;1.50;;;;;;;;;;4993933;28;20272;-84
2021/04/12 14:18:05;;;;;;;1.90;1.60;;;;;;;;;;4993455;28;20183;-84
2021/04/12 14:20:38;;;;;;;1.63;1.52;;;;;;;;;;5001372;28;20542;-84
2021/04/12 14:23:24;;;;;;;2.05;1.60;;;;;;;;;;5002559;28;20192;-84
2021/04/12 14:25:56;;;;;;;1.83;1.58;;;;;;;;;;4998524;28;20545;-87
2021/04/12 14:28:25;;;;;;;1.42;1.20;;;;;;;;;;4999874;28;20223;-84
2021/04/12 14:30:56;;;;;;;2.15;1.40;;;;;;;;;;4998669;28;20254;-85
2021/04/12 14:33:26;;;;;;;3.13;1.13;;;;;;;;;;5007636;28;20197;-83
2021/04/12 14:36:04;;;;;;;2.75;2.17;;;;;;;;;;5001730;28;20187;-84
2021/04/12 14:38:31;;;;;;;1.10;1.00;;;;;;;;;;4996582;28;20188;-79
2021/04/12 14:40:59;;;;;;;1.52;1.42;;;;;;;;;;4998026;28;20222;-85
2021/04/12 14:43:52;;;;;;;1.92;1.27;;;;;;;;;;5013918;28;20183;-88
2021/04/12 14:46:21;;;;;;;1.73;1.10;;;;;;;;;;4987100;28;20180;-83
2021/04/12 14:48:53;;;;;;;1.73;1.23;;;;;;;;;;4999804;28;20654;-88
2021/04/12 14:51:39;;;;;;;2.10;1.10;;;;;;;;;;4995877;28;20190;-85
2021/04/12 14:54:17;;;;;;;1.95;1.25;;;;;;;;;;5005629;28;20291;-85
2021/04/12 14:56:45;;;;;;;1.17;1.08;;;;;;;;;;5005425;28;20183;-88
2021/04/12 14:59:12;;;;;;;4.40;1.23;;;;;;;;;;4992199;28;20277;-87
2021/04/12 15:01:43;;;;;;;1.42;1.30;;;;;;;;;;5005082;28;20206;-84
2021/04/12 15:04:14;;;;;;;1.80;1.05;;;;;;;;;;5006189;28;20179;-85
2021/04/12 15:06:47;;;;;;;1.35;1.02;;;;;;;;;;5006274;28;20213;-87
2021/04/12 15:09:17;;;;;;;1.20;1.00;;;;;;;;;;5000854;28;20184;-84
2021/04/12 15:11:52;;;;;;;1.10;1.00;;;;;;;;;;4987130;28;20203;-84
2021/04/12 15:14:21;;;;;;;1.85;1.00;;;;;;;;;;4989796;28;20195;-87
2021/04/12 15:16:50;;;;;;;1.00;0.90;;;;;;;;;;5004902;28;20704;-82
2021/04/12 15:19:26;;;;;;;1.10;1.00;;;;;;;;;;5004511;28;20217;-82
2021/04/12 15:21:55;;;;;;;1.25;1.10;;;;;;;;;;5001537;28;20226;-86
2021/04/12 15:24:47;;;;;;;1.15;1.05;;;;;;;;;;5005429;28;20190;-86
2021/04/12 15:27:19;;;;;;;1.23;1.13;;;;;;;;;;5003460;28;20222;-82
2021/04/12 15:29:48;;;;;;;5.70;2.00;;;;;;;;;;5005351;28;20257;-80
2021/04/12 15:32:18;;;;;;;1.98;1.40;;;;;;;;;;4988214;28;20190;-82
2021/04/12 15:34:46;;;;;;;1.10;1.00;;;;;;;;;;5004801;28;20190;-82
2021/04/12 15:37:28;;;;;;;1.30;1.17;;;;;;;;;;5015977;28;20267;-81